Time;durP1;ratioP1;P1;durP2;ratioP2;P2;SDS_P1;SDS_P2;PMS_P1;PMS_P2;Temp;Humidity;BMP_temperature;BMP_pressure;BME280_temperature;BME280_humidity;BME280_pressure;Samples;Min_cycle;Max_cycle;Signal;HPM_P1;HPM_P2
2022/03/23 02:29:24;;;;;;;14.93;7.03;;;9.50;28.80;;;;;;6163136;23;21204;-79
2022/03/23 02:31:50;;;;;;;18.80;8.98;;;9.30;29.10;;;;;;6149780;23;20096;-78
2022/03/23 02:34:17;;;;;;;20.10;10.85;;;9.10;29.40;;;;;;6177624;23;20410;-77
2022/03/23 02:36:43;;;;;;;26.05;10.52;;;9.00;29.60;;;;;;6178306;23;20003;-79
2022/03/23 02:39:09;;;;;;;18.02;8.60;;;8.80;29.70;;;;;;6178927;23;20005;-78
2022/03/23 02:41:35;;;;;;;22.17;10.35;;;8.70;30.00;;;;;;6152337;23;20036;-77
2022/03/23 02:44:01;;;;;;;31.75;12.60;;;8.70;30.10;;;;;;6177345;23;20001;-79
2022/03/23 02:46:28;;;;;;;21.45;9.90;;;8.60;30.50;;;;;;6149591;23;20033;-78
2022/03/23 02:48:54;;;;;;;20.95;7.65;;;8.40;30.60;;;;;;6172914;23;20337;-78
2022/03/23 02:51:20;;;;;;;12.32;6.43;;;8.40;31.00;;;;;;6172477;23;20009;-78
2022/03/23 03:02:41;;;;;;;34.00;15.35;;;8.30;30.90;;;;;;6162207;23;20049;-77
2022/03/23 03:05:07;;;;;;;;;;;8.30;31.10;;;;;;6159805;23;20065;-77
2022/03/23 03:10:18;;;;;;;22.08;9.55;;;8.30;31.80;;;;;;6165671;23;20348;-78
2022/03/23 03:12:44;;;;;;;22.08;8.65;;;8.30;31.80;;;;;;6168847;23;20006;-78
2022/03/23 03:15:11;;;;;;;21.65;8.70;;;8.20;32.00;;;;;;6135262;23;20021;-77
2022/03/23 03:17:37;;;;;;;15.95;7.90;;;8.10;32.10;;;;;;6147661;23;20033;-77
2022/03/23 03:20:04;;;;;;;16.52;7.95;;;8.10;33.10;;;;;;6150445;23;20018;-77
2022/03/23 03:22:34;;;;;;;15.52;7.15;;;8.00;32.50;;;;;;6127704;23;20450;-77
2022/03/23 03:25:00;;;;;;;17.10;7.65;;;7.90;32.80;;;;;;6135136;23;20444;-77
2022/03/23 03:27:26;;;;;;;;;;;7.80;33.10;;;;;;6154237;23;20014;-78
2022/03/23 03:29:51;;;;;;;15.13;7.70;;;7.70;33.60;;;;;;6135658;23;19913;-77
2022/03/23 03:32:17;;;;;;;19.75;7.13;;;7.60;33.80;;;;;;6176776;23;20036;-78
2022/03/23 03:34:43;;;;;;;14.48;7.30;;;7.50;34.20;;;;;;6148564;23;20406;-79
2022/03/23 03:37:09;;;;;;;15.73;7.43;;;7.40;34.50;;;;;;6176285;23;20005;-78
2022/03/23 03:39:35;;;;;;;16.20;7.95;;;7.40;34.70;;;;;;6150566;23;20033;-78
2022/03/23 03:42:01;;;;;;;23.58;7.72;;;7.30;34.90;;;;;;6176305;23;20002;-80
2022/03/23 03:44:27;;;;;;;18.00;8.07;;;7.30;35.00;;;;;;6176557;23;20009;-78
2022/03/23 03:46:53;;;;;;;15.15;8.10;;;7.30;35.30;;;;;;6149997;23;20020;-78
2022/03/23 03:49:18;;;;;;;17.05;8.13;;;7.20;35.10;;;;;;6175616;23;20006;-78
2022/03/23 03:51:44;;;;;;;22.92;9.23;;;7.20;35.30;;;;;;6150410;23;20006;-78
2022/03/23 03:54:11;;;;;;;23.95;11.73;;;7.10;35.60;;;;;;6175848;23;20001;-78
2022/03/23 03:56:36;;;;;;;22.90;11.40;;;7.00;35.80;;;;;;6174186;23;20017;-78
2022/03/23 03:59:03;;;;;;;26.05;13.00;;;7.00;36.00;;;;;;6150378;23;20009;-78
2022/03/23 04:01:28;;;;;;;32.35;13.50;;;6.90;36.20;;;;;;6176000;23;20009;-78
2022/03/23 04:03:54;;;;;;;32.67;13.40;;;6.80;36.70;;;;;;6175040;23;20025;-78
2022/03/23 04:06:20;;;;;;;24.25;10.75;;;6.80;36.90;;;;;;6176229;23;20009;-78
2022/03/23 04:08:46;;;;;;;;;;;6.80;37.00;;;;;;6178066;23;20002;-79
2022/03/23 04:11:11;;;;;;;21.65;10.23;;;6.70;37.00;;;;;;6179465;23;19904;-79
2022/03/23 04:13:37;;;;;;;23.85;11.02;;;6.70;37.40;;;;;;6179621;23;20005;-78
2022/03/23 04:16:03;;;;;;;25.17;11.35;;;6.60;37.70;;;;;;6177868;23;20006;-78
2022/03/23 04:18:29;;;;;;;29.73;14.70;;;6.50;38.10;;;;;;6178756;23;20006;-79
2022/03/23 04:20:54;;;;;;;32.15;15.38;;;6.40;38.10;;;;;;6179677;23;19989;-79
2022/03/23 04:23:20;;;;;;;31.23;13.50;;;6.30;38.50;;;;;;6177802;23;20013;-79
2022/03/23 04:25:46;;;;;;;32.05;15.40;;;6.20;39.20;;;;;;6178978;23;19997;-78
2022/03/23 04:28:12;;;;;;;32.78;13.95;;;6.20;38.90;;;;;;6179723;23;20001;-79
2022/03/23 04:30:37;;;;;;;35.95;14.77;;;6.00;39.00;;;;;;6190802;23;20232;-79
2022/03/23 04:33:03;;;;;;;32.65;15.05;;;5.90;39.20;;;;;;6209842;23;19992;-78
2022/03/23 04:35:29;;;;;;;45.28;19.30;;;5.90;39.50;;;;;;6210585;23;20052;-79
2022/03/23 04:37:55;;;;;;;38.97;18.08;;;5.80;39.80;;;;;;6209771;23;20044;-79
2022/03/23 04:40:22;;;;;;;42.45;16.67;;;5.80;40.00;;;;;;6208210;23;20007;-80
2022/03/23 04:42:48;;;;;;;32.05;14.52;;;5.70;40.30;;;;;;6211017;23;20016;-79
2022/03/23 04:45:14;;;;;;;37.83;14.63;;;5.60;40.50;;;;;;6212277;23;19993;-79
2022/03/23 04:47:40;;;;;;;69.72;35.50;;;5.60;40.70;;;;;;6187610;23;20005;-79
2022/03/23 04:50:11;;;;;;;82.25;45.08;;;5.60;40.70;;;;;;6212972;23;20044;-79
2022/03/23 04:52:38;;;;;;;48.05;26.65;;;5.60;40.80;;;;;;6214131;23;20009;-79
2022/03/23 04:55:05;;;;;;;36.45;19.50;;;5.60;41.10;;;;;;6213117;23;19989;-79
2022/03/23 04:57:31;;;;;;;26.98;14.65;;;5.70;41.20;;;;;;6186208;23;19993;-79
2022/03/23 04:59:58;;;;;;;29.00;13.30;;;5.70;41.40;;;;;;6213348;23;20037;-79
2022/03/23 05:02:26;;;;;;;24.75;11.45;;;5.70;41.30;;;;;;6212937;23;20001;-80
2022/03/23 05:04:52;;;;;;;24.98;10.77;;;5.80;41.30;;;;;;6213381;23;20017;-80
2022/03/23 05:07:18;;;;;;;17.02;8.45;;;5.80;41.30;;;;;;6214305;23;20004;-80
2022/03/23 05:09:43;;;;;;;23.92;9.93;;;5.80;41.80;;;;;;6187879;23;20012;-78
2022/03/23 05:12:09;;;;;;;18.67;8.95;;;5.80;41.80;;;;;;6213984;23;20012;-79
2022/03/23 05:14:36;;;;;;;19.80;8.05;;;5.90;41.70;;;;;;6188365;23;19990;-79
2022/03/23 05:17:02;;;;;;;21.10;8.55;;;6.00;41.60;;;;;;6212950;23;19987;-79
2022/03/23 05:19:28;;;;;;;17.50;7.80;;;6.10;41.50;;;;;;6186698;23;19988;-79
2022/03/23 05:21:53;;;;;;;17.83;8.25;;;6.10;41.10;;;;;;6212110;23;20016;-80
2022/03/23 05:24:19;;;;;;;20.08;10.07;;;6.20;41.10;;;;;;6212032;23;20015;-79
2022/03/23 05:26:45;;;;;;;22.52;9.40;;;6.30;41.30;;;;;;6186385;23;20008;-79
2022/03/23 05:31:46;;;;;;;25.80;9.32;;;6.40;41.10;;;;;;6190716;23;20248;-79
2022/03/23 05:34:12;;;;;;;23.77;11.18;;;6.60;41.10;;;;;;6180037;23;20009;-78
2022/03/23 05:36:38;;;;;;;;;;;6.70;40.80;;;;;;6205219;23;20009;-78
2022/03/23 05:39:04;;;;;;;30.42;9.75;;;6.90;40.80;;;;;;6180547;23;19915;-79
2022/03/23 05:41:29;;;;;;;27.02;8.57;;;7.10;40.60;;;;;;6207063;23;20020;-78
2022/03/23 05:43:55;;;;;;;20.83;9.82;;;7.40;40.10;;;;;;6206381;23;20017;-79
2022/03/23 05:46:21;;;;;;;18.08;8.27;;;7.90;39.20;;;;;;6206328;23;20008;-79
2022/03/23 05:48:47;;;;;;;23.55;9.77;;;8.70;38.20;;;;;;6212780;23;20016;-78
2022/03/23 05:51:13;;;;;;;;;;;9.80;35.10;;;;;;6212853;23;20016;-78
2022/03/23 05:53:40;;;;;;;27.45;9.40;;;10.90;32.40;;;;;;6213663;23;19915;-79
2022/03/23 05:56:07;;;;;;;21.15;9.43;;;12.00;29.80;;;;;;6213887;23;20041;-79
2022/03/23 05:58:34;;;;;;;20.92;9.80;;;13.00;28.40;;;;;;6214506;23;20037;-77
2022/03/23 06:01:00;;;;;;;24.55;9.40;;;13.70;27.30;;;;;;6214912;23;20053;-79
2022/03/23 06:03:26;;;;;;;18.35;9.68;;;14.40;26.20;;;;;;6188201;23;19997;-79
2022/03/23 06:05:52;;;;;;;;;;;14.80;25.40;;;;;;6187810;23;20001;-79
2022/03/23 06:08:18;;;;;;;25.67;9.80;;;15.10;25.00;;;;;;6186822;23;19903;-80
2022/03/23 06:10:43;;;;;;;;;;;15.20;24.50;;;;;;6187709;23;20001;-79
2022/03/23 06:13:09;;;;;;;21.95;9.90;;;15.30;24.40;;;;;;6188316;23;19888;-79
2022/03/23 06:15:35;;;;;;;;;;;15.60;24.10;;;;;;6189364;23;20005;-79
2022/03/23 06:18:01;;;;;;;24.05;8.90;;;15.70;23.80;;;;;;6188936;23;19888;-77
2022/03/23 06:20:26;;;;;;;;;;;16.20;23.60;;;;;;6213905;23;19989;-78
2022/03/23 06:22:52;;;;;;;17.17;9.50;;;16.40;23.10;;;;;;6188437;23;19951;-78
2022/03/23 06:25:18;;;;;;;;;;;16.70;22.60;;;;;;6215182;23;20016;-75
2022/03/23 06:27:44;;;;;;;15.63;9.23;;;17.10;22.20;;;;;;6214728;23;19895;-78
2022/03/23 06:35:28;;;;;;;19.50;9.77;;;17.70;21.40;;;;;;6195263;23;20001;-81
2022/03/23 06:37:54;;;;;;;23.45;10.90;;;18.10;21.10;;;;;;6198556;23;20057;-82
2022/03/23 06:40:21;;;;;;;21.15;9.00;;;18.40;20.80;;;;;;6179752;23;20536;-85
2022/03/23 06:42:47;;;;;;;29.83;10.52;;;18.60;20.60;;;;;;6177964;23;20080;-89
2022/03/23 06:45:13;;;;;;;18.95;10.55;;;19.00;20.20;;;;;;6175962;23;20033;-86
2022/03/23 06:47:38;;;;;;;19.48;10.52;;;19.50;19.70;;;;;;6177641;23;20027;-88
2022/03/23 06:50:05;;;;;;;17.42;9.75;;;19.80;19.50;;;;;;6175618;23;20041;-89
2022/03/23 06:52:31;;;;;;;19.15;9.10;;;20.10;19.10;;;;;;6176208;23;20120;-90
2022/03/23 06:54:57;;;;;;;17.40;9.00;;;20.50;18.70;;;;;;6150811;23;20044;-86
2022/03/23 06:57:22;;;;;;;15.95;9.02;;;20.90;18.30;;;;;;6151063;23;20437;-86
2022/03/23 06:59:48;;;;;;;15.10;8.30;;;21.00;18.10;;;;;;6176571;23;20083;-86
2022/03/23 07:02:14;;;;;;;19.10;8.30;;;21.10;18.10;;;;;;6150367;23;20087;-87
2022/03/23 07:04:39;;;;;;;16.10;8.60;;;21.30;17.70;;;;;;6149946;23;20016;-88
2022/03/23 07:07:05;;;;;;;16.75;8.60;;;21.30;18.00;;;;;;6151104;23;20009;-83
2022/03/23 07:09:31;;;;;;;15.88;8.75;;;21.40;17.80;;;;;;6177053;23;20013;-87
2022/03/23 07:11:58;;;;;;;17.73;9.32;;;21.20;17.90;;;;;;6177366;23;20497;-86
2022/03/23 07:14:23;;;;;;;23.80;9.15;;;21.10;17.90;;;;;;6175199;23;20092;-89
2022/03/23 07:16:49;;;;;;;16.52;7.95;;;21.60;17.50;;;;;;6177473;23;20474;-87
2022/03/23 07:19:16;;;;;;;14.70;7.47;;;21.60;17.40;;;;;;6176557;23;20217;-87
2022/03/23 07:21:42;;;;;;;15.90;8.18;;;21.60;17.40;;;;;;6177412;23;20001;-86
2022/03/23 07:24:07;;;;;;;19.05;8.27;;;21.80;17.40;;;;;;6177065;23;20063;-88
2022/03/23 07:26:33;;;;;;;20.30;9.80;;;22.10;16.90;;;;;;6176916;23;20001;-87
2022/03/23 07:29:01;;;;;;;18.83;8.05;;;22.40;17.10;;;;;;6177473;23;20347;-85
2022/03/23 07:31:26;;;;;;;16.00;8.00;;;22.50;16.90;;;;;;6178488;23;20532;-87
2022/03/23 07:33:52;;;;;;;19.55;8.60;;;22.50;16.80;;;;;;6150456;23;20005;-86
2022/03/23 07:36:18;;;;;;;18.88;7.75;;;22.70;16.70;;;;;;6150322;23;20443;-87
2022/03/23 07:38:43;;;;;;;18.00;7.25;;;22.90;16.50;;;;;;6150065;23;20008;-87
2022/03/23 07:41:09;;;;;;;13.82;7.65;;;23.10;16.50;;;;;;6150962;23;20012;-86
2022/03/23 07:43:34;;;;;;;17.75;8.15;;;23.00;16.30;;;;;;6176238;23;20446;-86
2022/03/23 07:46:00;;;;;;;15.52;8.35;;;23.50;16.00;;;;;;6176367;23;20009;-87
2022/03/23 07:48:26;;;;;;;17.27;7.90;;;23.80;15.60;;;;;;6150232;23;20107;-87
2022/03/23 07:50:52;;;;;;;12.85;7.55;;;23.80;15.60;;;;;;6177713;23;20001;-87
2022/03/23 07:53:18;;;;;;;20.08;9.27;;;23.90;15.70;;;;;;6150165;23;20058;-86
2022/03/23 07:55:44;;;;;;;22.45;13.10;;;23.80;15.60;;;;;;6176685;23;20140;-86
2022/03/23 07:58:10;;;;;;;22.35;14.38;;;24.20;15.40;;;;;;6150667;23;20015;-86
2022/03/23 08:00:36;;;;;;;25.48;14.82;;;24.20;14.90;;;;;;6177243;23;20445;-86
2022/03/23 08:03:01;;;;;;;19.90;8.88;;;24.40;15.10;;;;;;6176259;23;20013;-85
2022/03/23 08:05:28;;;;;;;15.05;7.60;;;24.00;14.80;;;;;;6150498;23;20390;-85
2022/03/23 08:07:54;;;;;;;18.77;9.15;;;23.80;15.30;;;;;;6150535;23;20012;-87
2022/03/23 08:10:20;;;;;;;18.90;8.95;;;24.20;15.10;;;;;;6176420;23;20067;-86
2022/03/23 08:12:45;;;;;;;20.15;7.65;;;24.20;14.90;;;;;;6150333;23;20017;-86
2022/03/23 08:15:11;;;;;;;19.17;11.07;;;24.00;15.00;;;;;;6176567;23;20005;-86
2022/03/23 08:17:38;;;;;;;20.27;8.40;;;23.90;15.00;;;;;;6177037;23;20001;-83
2022/03/23 08:22:52;;;;;;;24.27;8.18;;;24.60;15.10;;;;;;6177428;23;20016;-83
2022/03/23 08:25:17;;;;;;;13.05;7.43;;;24.80;14.80;;;;;;6150481;23;20013;-82
2022/03/23 08:27:43;;;;;;;18.75;9.48;;;25.10;14.50;;;;;;6176776;23;20435;-83
2022/03/23 08:30:09;;;;;;;12.95;6.93;;;25.20;14.00;;;;;;6177180;23;20033;-80
2022/03/23 08:32:35;;;;;;;15.85;7.68;;;25.20;14.00;;;;;;6150094;23;20012;-83
2022/03/23 08:35:01;;;;;;;13.63;8.15;;;24.50;14.40;;;;;;6177374;23;20017;-83
2022/03/23 08:37:26;;;;;;;11.02;6.93;;;24.70;15.00;;;;;;6151072;23;20080;-83
2022/03/23 08:39:52;;;;;;;13.27;6.47;;;25.00;14.40;;;;;;6176819;23;20032;-83
2022/03/23 08:42:18;;;;;;;16.17;7.25;;;25.00;13.70;;;;;;6177145;23;20013;-82
2022/03/23 08:44:45;;;;;;;26.08;8.70;;;24.80;14.20;;;;;;6177574;23;20020;-82
2022/03/23 08:47:12;;;;;;;15.85;7.78;;;24.80;14.70;;;;;;6176260;23;20005;-83
2022/03/23 08:49:38;;;;;;;14.65;7.80;;;24.90;14.30;;;;;;6177305;23;20399;-82
2022/03/23 08:52:04;;;;;;;16.83;7.78;;;24.80;14.60;;;;;;6150650;23;20388;-82
2022/03/23 08:54:30;;;;;;;14.68;5.97;;;25.00;14.10;;;;;;6176281;23;20025;-82
2022/03/23 08:56:56;;;;;;;20.35;10.52;;;25.00;13.30;;;;;;6150286;23;20009;-82
2022/03/23 08:59:21;;;;;;;13.93;6.80;;;24.90;13.80;;;;;;6176590;23;20056;-81
2022/03/23 09:01:48;;;;;;;12.40;5.72;;;25.40;13.50;;;;;;6176822;23;20009;-81
2022/03/23 09:04:14;;;;;;;12.38;6.82;;;25.80;13.10;;;;;;6176050;23;20039;-82
2022/03/23 09:06:40;;;;;;;14.88;7.80;;;25.80;13.80;;;;;;6176806;23;20005;-81
2022/03/23 09:09:06;;;;;;;16.85;9.75;;;25.50;13.40;;;;;;6150503;23;20017;-83
2022/03/23 09:11:32;;;;;;;15.13;7.30;;;25.90;13.70;;;;;;6150647;23;20005;-84
2022/03/23 09:13:58;;;;;;;20.35;7.40;;;25.80;13.60;;;;;;6176723;23;20005;-83
2022/03/23 09:16:24;;;;;;;11.68;5.97;;;25.50;13.40;;;;;;6176908;23;20072;-83
2022/03/23 09:18:50;;;;;;;12.07;5.95;;;25.50;13.00;;;;;;6176670;23;20024;-84
2022/03/23 09:21:16;;;;;;;22.67;8.95;;;25.70;12.40;;;;;;6178160;23;20083;-84
2022/03/23 09:23:43;;;;;;;16.65;7.35;;;25.40;13.00;;;;;;6177794;23;20413;-82
2022/03/23 09:26:11;;;;;;;12.18;5.70;;;25.50;13.60;;;;;;6177779;23;20005;-82
2022/03/23 09:28:38;;;;;;;11.93;6.93;;;25.30;13.70;;;;;;6152197;23;20016;-82
2022/03/23 09:31:04;;;;;;;14.15;6.70;;;25.50;13.60;;;;;;6152174;23;20096;-82
2022/03/23 09:33:31;;;;;;;10.68;6.10;;;25.80;13.50;;;;;;6177616;23;20001;-81
2022/03/23 09:35:56;;;;;;;10.00;5.15;;;26.60;13.80;;;;;;6178362;23;20033;-81
2022/03/23 09:38:22;;;;;;;11.10;6.68;;;26.80;12.90;;;;;;6151935;23;20092;-82
2022/03/23 09:40:52;;;;;;;15.65;5.10;;;26.40;12.30;;;;;;6178532;23;20451;-83
2022/03/23 09:43:23;;;;;;;10.57;5.78;;;26.00;12.60;;;;;;6178175;23;20013;-82
2022/03/23 09:45:51;;;;;;;8.50;5.45;;;25.90;13.20;;;;;;6177544;23;20012;-81
2022/03/23 09:48:20;;;;;;;12.60;5.80;;;26.60;13.20;;;;;;6151305;23;20009;-82
2022/03/23 09:50:50;;;;;;;9.13;5.90;;;27.10;12.30;;;;;;6178447;23;20085;-80
2022/03/23 09:53:16;;;;;;;11.38;5.20;;;27.10;12.40;;;;;;6178163;23;20119;-81
2022/03/23 09:55:45;;;;;;;10.88;6.28;;;27.70;12.60;;;;;;6178289;23;20009;-80
2022/03/23 09:58:11;;;;;;;11.23;6.38;;;28.30;12.60;;;;;;6177425;23;20029;-81
2022/03/23 10:00:40;;;;;;;15.85;7.40;;;28.40;12.70;;;;;;6152010;23;20110;-80
2022/03/23 10:03:11;;;;;;;15.73;6.25;;;28.70;12.90;;;;;;6177931;23;20009;-80
2022/03/23 10:06:21;;;;;;;11.30;5.97;;;29.00;13.10;;;;;;6151556;23;20348;-83
2022/03/23 10:09:07;;;;;;;15.70;6.90;;;29.30;12.60;;;;;;6178276;23;20025;-82
2022/03/23 10:12:06;;;;;;;14.23;5.70;;;29.20;12.70;;;;;;6178057;23;20001;-83
2022/03/23 10:14:54;;;;;;;14.18;6.07;;;29.10;12.70;;;;;;6178519;23;20037;-82
2022/03/23 10:17:42;;;;;;;10.73;5.07;;;29.40;12.20;;;;;;6151290;23;20005;-83
2022/03/23 10:20:11;;;;;;;18.95;5.32;;;29.40;12.20;;;;;;6177783;23;20033;-82
2022/03/23 10:22:48;;;;;;;15.93;6.15;;;29.50;12.70;;;;;;6151460;23;20733;-83
2022/03/23 10:25:16;;;;;;;9.63;5.43;;;29.60;12.00;;;;;;6177505;23;20012;-83
2022/03/23 10:27:43;;;;;;;12.52;5.53;;;29.80;12.20;;;;;;6177373;23;20005;-80
2022/03/23 10:30:09;;;;;;;9.25;4.88;;;30.00;11.80;;;;;;6151336;23;20080;-79
2022/03/23 10:32:37;;;;;;;11.45;5.13;;;29.90;11.80;;;;;;6150382;23;20013;-83
2022/03/23 10:35:04;;;;;;;11.52;6.03;;;29.30;11.50;;;;;;6177708;23;20009;-85
2022/03/23 10:37:32;;;;;;;12.43;5.32;;;28.20;11.20;;;;;;6177563;23;20013;-88
2022/03/23 10:40:07;;;;;;;13.60;5.68;;;26.70;11.80;;;;;;6151331;23;20032;-88
2022/03/23 10:42:35;;;;;;;13.82;6.10;;;25.90;12.70;;;;;;6178079;23;20087;-89
2022/03/23 10:45:16;;;;;;;9.40;5.32;;;24.90;13.10;;;;;;6150933;23;20068;-89
2022/03/23 10:47:42;;;;;;;13.15;5.65;;;24.70;14.20;;;;;;6177351;23;20001;-89
2022/03/23 10:50:13;;;;;;;11.02;4.97;;;24.50;13.90;;;;;;6151093;23;20074;-88
2022/03/23 10:52:53;;;;;;;12.35;5.85;;;24.20;14.00;;;;;;6177737;23;20336;-88
2022/03/23 10:55:19;;;;;;;9.65;5.40;;;24.00;14.50;;;;;;6177963;23;20008;-87
2022/03/23 10:57:44;;;;;;;11.55;4.72;;;23.60;14.60;;;;;;6151132;23;20071;-89
2022/03/23 11:00:38;;;;;;;14.68;5.30;;;23.30;14.60;;;;;;6177865;23;20418;-87
2022/03/23 11:03:06;;;;;;;10.75;4.80;;;23.10;15.00;;;;;;6177681;23;20012;-86
2022/03/23 11:05:45;;;;;;;10.88;5.38;;;22.80;15.30;;;;;;6151042;23;20023;-87
2022/03/23 11:08:12;;;;;;;12.13;5.25;;;22.80;15.40;;;;;;6151672;23;20005;-87
2022/03/23 11:16:27;;;;;;;11.00;5.13;;;22.50;15.20;;;;;;6184826;23;20012;-83
2022/03/23 11:19:19;;;;;;;11.50;5.38;;;22.30;15.10;;;;;;6184231;23;20016;-82
2022/03/23 11:22:01;;;;;;;12.30;5.72;;;22.20;15.60;;;;;;6150401;23;20450;-82
2022/03/23 11:24:28;;;;;;;12.50;5.60;;;22.10;15.70;;;;;;6182824;23;20028;-83
2022/03/23 11:26:55;;;;;;;10.35;4.95;;;22.10;15.80;;;;;;6184203;23;20001;-84
2022/03/23 11:29:21;;;;;;;8.50;4.55;;;22.20;16.10;;;;;;6156215;23;20013;-84
2022/03/23 11:31:48;;;;;;;10.70;4.57;;;22.10;15.60;;;;;;6181570;23;20422;-83
2022/03/23 11:34:18;;;;;;;10.65;5.20;;;22.00;15.30;;;;;;6183796;23;20031;-83
2022/03/23 11:36:46;;;;;;;17.00;5.50;;;21.90;15.50;;;;;;6158831;23;20005;-83
2022/03/23 11:39:11;;;;;;;11.75;4.75;;;21.90;15.60;;;;;;6186877;23;20439;-83
2022/03/23 11:41:38;;;;;;;15.10;5.30;;;21.80;15.30;;;;;;6163353;23;20001;-83
2022/03/23 11:44:05;;;;;;;10.18;5.07;;;21.50;15.50;;;;;;6196019;23;20451;-80
2022/03/23 11:46:31;;;;;;;9.95;4.97;;;21.40;15.90;;;;;;6196974;23;20001;-83
2022/03/23 11:49:26;;;;;;;9.40;4.53;;;21.40;16.80;;;;;;6171067;23;20005;-82
2022/03/23 11:52:13;;;;;;;8.88;4.60;;;21.40;16.30;;;;;;6185726;23;20004;-81
2022/03/23 11:58:02;;;;;;;15.93;6.95;;;21.60;16.10;;;;;;6202732;23;19999;-83
2022/03/23 12:00:38;;;;;;;13.90;5.05;;;21.50;16.30;;;;;;6198938;23;19997;-81
2022/03/23 12:03:04;;;;;;;11.95;5.47;;;21.50;16.20;;;;;;6176371;23;20009;-84
2022/03/23 12:05:39;;;;;;;9.05;4.32;;;21.50;16.00;;;;;;6200354;23;20020;-83
2022/03/23 12:08:06;;;;;;;15.82;4.70;;;21.40;16.10;;;;;;6201247;23;19997;-83
2022/03/23 12:10:42;;;;;;;11.90;4.03;;;21.40;16.20;;;;;;6203834;23;20001;-82
2022/03/23 12:13:16;;;;;;;11.02;5.72;;;21.30;15.90;;;;;;6201695;23;20001;-82
2022/03/23 12:15:56;;;;;;;8.90;4.72;;;21.30;16.10;;;;;;6178440;23;20059;-81
2022/03/23 12:18:38;;;;;;;13.50;5.45;;;21.30;16.10;;;;;;6207682;23;20001;-81
2022/03/23 12:21:09;;;;;;;12.63;5.55;;;21.30;16.30;;;;;;6208359;23;19993;-82
2022/03/23 12:23:42;;;;;;;12.55;5.10;;;21.30;16.70;;;;;;6203429;23;20020;-82
2022/03/23 12:26:14;;;;;;;13.38;5.40;;;21.30;16.30;;;;;;6178454;23;20031;-81
2022/03/23 12:29:00;;;;;;;11.60;5.35;;;21.30;15.90;;;;;;6176258;23;20032;-80
2022/03/23 12:31:38;;;;;;;8.93;5.47;;;21.30;16.50;;;;;;6174968;23;20566;-78
2022/03/23 12:34:16;;;;;;;12.32;5.57;;;21.40;16.40;;;;;;6172191;23;20075;-81
2022/03/23 12:36:59;;;;;;;47.58;27.45;;;21.40;16.10;;;;;;6202672;23;20001;-82
2022/03/23 12:39:32;;;;;;;11.63;5.68;;;21.40;16.20;;;;;;6174962;23;20012;-79
2022/03/23 12:42:11;;;;;;;13.80;6.13;;;21.50;16.20;;;;;;6172171;23;20005;-82
2022/03/23 12:44:37;;;;;;;10.75;4.68;;;21.50;15.70;;;;;;6174653;23;20017;-81
2022/03/23 12:47:28;;;;;;;7.78;4.35;;;21.50;16.10;;;;;;6173585;23;20005;-81
2022/03/23 12:58:17;;;;;;;10.45;4.95;;;21.60;16.90;;;;;;6200757;23;20180;-81
2022/03/23 13:00:47;;;;;;;14.65;4.75;;;21.60;16.10;;;;;;6170377;23;20009;-82
2022/03/23 13:03:18;;;;;;;9.18;4.68;;;21.60;16.00;;;;;;6168297;23;20089;-82
2022/03/23 13:05:59;;;;;;;9.38;4.60;;;21.60;16.20;;;;;;6173967;23;20381;-82
2022/03/23 13:08:30;;;;;;;12.52;4.80;;;21.60;16.20;;;;;;6200222;23;20016;-79
2022/03/23 13:10:58;;;;;;;16.30;5.07;;;21.50;16.10;;;;;;6198227;23;20004;-81
2022/03/23 13:13:25;;;;;;;11.55;5.18;;;21.60;16.30;;;;;;6170454;23;20028;-82
2022/03/23 13:15:51;;;;;;;14.05;6.03;;;21.50;16.40;;;;;;6195989;23;20371;-83
2022/03/23 13:18:24;;;;;;;12.70;5.65;;;21.50;16.40;;;;;;6198160;23;20346;-82
2022/03/23 13:20:51;;;;;;;12.85;5.38;;;21.60;17.00;;;;;;6197847;23;20011;-81
2022/03/23 13:23:20;;;;;;;12.18;5.00;;;21.60;16.90;;;;;;6197469;23;20017;-82
2022/03/23 13:25:52;;;;;;;8.55;4.82;;;21.50;16.60;;;;;;6201810;23;20179;-82
2022/03/23 13:28:23;;;;;;;12.82;5.65;;;21.50;16.70;;;;;;6171893;23;20012;-82
2022/03/23 13:31:00;;;;;;;12.15;5.68;;;21.50;16.60;;;;;;6171479;23;20095;-83
2022/03/23 13:33:35;;;;;;;14.50;6.30;;;21.50;17.00;;;;;;6176365;23;20465;-83
2022/03/23 13:36:02;;;;;;;10.13;4.80;;;21.60;17.50;;;;;;6177703;23;20040;-81
2022/03/23 13:38:35;;;;;;;9.93;5.32;;;21.60;17.50;;;;;;6189686;23;20005;-82
2022/03/23 13:43:46;;;;;;;11.38;5.43;;;21.50;17.60;;;;;;6202356;23;20024;-82
2022/03/23 13:46:12;;;;;;;10.93;5.28;;;21.50;17.60;;;;;;6199345;23;20020;-82
2022/03/23 13:48:39;;;;;;;11.63;5.60;;;21.50;17.60;;;;;;6177031;23;20009;-82
2022/03/23 13:51:04;;;;;;;13.35;5.25;;;21.50;17.20;;;;;;6204109;23;19997;-82
2022/03/23 13:53:30;;;;;;;10.80;5.20;;;21.40;17.20;;;;;;6204676;23;20012;-82
2022/03/23 13:55:56;;;;;;;13.38;5.07;;;21.40;17.40;;;;;;6210601;23;19989;-82
2022/03/23 13:58:24;;;;;;;14.77;5.03;;;21.40;17.10;;;;;;6183320;23;19996;-80
2022/03/23 14:00:52;;;;;;;9.02;4.85;;;21.30;17.50;;;;;;6213053;23;20045;-83
2022/03/23 14:03:31;;;;;;;17.63;5.18;;;21.30;17.70;;;;;;6188219;23;20056;-83
2022/03/23 14:06:16;;;;;;;9.23;5.65;;;21.30;17.80;;;;;;6189399;23;20009;-85
2022/03/23 14:08:53;;;;;;;13.48;6.13;;;21.30;17.60;;;;;;6214623;23;19989;-82
2022/03/23 14:11:47;;;;;;;9.55;5.22;;;21.20;17.50;;;;;;6215457;23;20012;-80
2022/03/23 14:14:15;;;;;;;13.68;6.22;;;21.20;17.60;;;;;;6214985;23;19989;-82
2022/03/23 14:16:41;;;;;;;13.68;6.13;;;21.10;17.60;;;;;;6179065;23;20036;-82
2022/03/23 14:19:08;;;;;;;14.70;5.32;;;21.10;18.20;;;;;;6205800;23;20011;-82
2022/03/23 14:21:35;;;;;;;11.70;4.97;;;21.00;17.70;;;;;;6177935;23;20005;-83
2022/03/23 14:24:01;;;;;;;11.13;5.68;;;21.00;17.80;;;;;;6186358;23;20061;-80
2022/03/23 14:26:32;;;;;;;11.57;5.47;;;21.00;17.70;;;;;;6186069;23;20012;-81
2022/03/23 14:29:00;;;;;;;15.38;5.80;;;21.00;17.90;;;;;;6203517;23;20005;-80
2022/03/23 14:31:26;;;;;;;15.38;5.75;;;21.00;18.10;;;;;;6212088;23;19996;-83
2022/03/23 14:34:05;;;;;;;10.02;4.55;;;21.00;17.90;;;;;;6188016;23;20012;-81
2022/03/23 14:36:31;;;;;;;17.80;11.23;;;20.90;17.90;;;;;;6185796;23;20067;-82
2022/03/23 14:38:58;;;;;;;9.57;5.32;;;20.80;17.90;;;;;;6188308;23;20108;-79
2022/03/23 14:41:27;;;;;;;15.73;6.07;;;20.80;18.00;;;;;;6214156;23;20012;-81
2022/03/23 14:43:54;;;;;;;9.13;5.38;;;20.80;18.00;;;;;;6214173;23;20004;-79
2022/03/23 14:46:22;;;;;;;8.65;4.75;;;20.80;17.90;;;;;;6214210;23;19997;-75
2022/03/23 14:49:08;;;;;;;11.40;6.18;;;20.80;17.90;;;;;;6214119;23;20020;-76
2022/03/23 14:51:35;;;;;;;11.05;5.18;;;20.70;17.90;;;;;;6214231;23;20016;-76
2022/03/23 14:54:03;;;;;;;15.18;6.28;;;20.60;18.10;;;;;;6214160;23;19981;-80
2022/03/23 14:56:28;;;;;;;10.13;4.65;;;20.60;18.00;;;;;;6188735;23;20020;-76
2022/03/23 14:58:59;;;;;;;9.68;5.82;;;20.60;18.00;;;;;;6214218;23;20037;-78
2022/03/23 15:01:26;;;;;;;13.95;5.53;;;20.60;18.30;;;;;;6188488;23;19999;-76
2022/03/23 15:03:53;;;;;;;10.40;5.57;;;20.60;18.30;;;;;;6213957;23;20043;-76
2022/03/23 15:14:32;;;;;;;19.13;5.22;;;20.40;18.00;;;;;;6214315;23;20008;-75
2022/03/23 15:16:57;;;;;;;11.70;5.22;;;20.40;18.00;;;;;;6188670;23;19990;-77
2022/03/23 15:19:23;;;;;;;10.18;5.90;;;20.30;17.90;;;;;;6213329;23;20032;-78
2022/03/23 15:21:49;;;;;;;9.15;5.78;;;20.20;18.00;;;;;;6214142;23;19988;-75
2022/03/23 15:24:16;;;;;;;12.93;5.93;;;20.20;18.10;;;;;;6188399;23;20050;-75
2022/03/23 15:26:42;;;;;;;16.00;5.30;;;20.10;18.30;;;;;;6213989;23;20001;-76
2022/03/23 15:43:20;;;;;;;9.48;4.82;;;19.80;17.90;;;;;;5988087;23;4940382;-80
2022/03/23 15:45:47;;;;;;;13.60;5.28;;;19.80;18.00;;;;;;6214458;23;20003;-79
2022/03/23 15:48:13;;;;;;;11.43;4.95;;;19.70;18.10;;;;;;6214723;23;20008;-82
2022/03/23 15:50:45;;;;;;;9.30;4.38;;;19.70;18.10;;;;;;6189400;23;19993;-77
2022/03/23 15:53:11;;;;;;;7.35;4.03;;;19.60;18.00;;;;;;6214882;23;20009;-79
2022/03/23 15:55:36;;;;;;;7.88;4.53;;;19.50;18.10;;;;;;6214841;23;20037;-76
2022/03/23 15:58:02;;;;;;;10.07;4.80;;;19.40;18.30;;;;;;6189440;23;19989;-76
2022/03/23 16:00:28;;;;;;;10.02;4.80;;;19.40;18.40;;;;;;6189397;23;19993;-76
2022/03/23 16:02:54;;;;;;;12.45;5.18;;;19.40;18.70;;;;;;6215092;23;19985;-75
2022/03/23 16:05:21;;;;;;;11.60;5.07;;;19.20;18.70;;;;;;6214734;23;19997;-75
2022/03/23 16:07:48;;;;;;;11.63;5.15;;;19.20;18.80;;;;;;6188938;23;19996;-76
2022/03/23 16:10:13;;;;;;;11.20;5.22;;;19.10;18.80;;;;;;6189462;23;19997;-76
2022/03/23 16:12:41;;;;;;;13.23;4.85;;;19.10;18.90;;;;;;6214988;23;19985;-77
2022/03/23 16:15:07;;;;;;;8.95;4.60;;;18.90;19.00;;;;;;6214863;23;20012;-76
2022/03/23 16:17:39;;;;;;;12.18;4.72;;;18.80;19.20;;;;;;6214515;23;19989;-76
2022/03/23 16:20:06;;;;;;;14.15;4.85;;;18.70;19.50;;;;;;6189280;23;20001;-76